createdAt,value
2017-06-10T00:00:54.186Z,19.51
2017-06-10T00:01:55.816Z,19.49
2017-06-10T00:02:57.454Z,19.49
2017-06-10T00:03:59.167Z,19.48
2017-06-10T00:05:00.812Z,19.40
2017-06-10T00:06:02.503Z,19.37
2017-06-10T00:07:04.170Z,19.37
2017-06-10T00:08:05.819Z,19.44
2017-06-10T00:09:46.977Z,19.34
2017-06-10T00:10:48.617Z,19.39
2017-06-10T00:11:50.243Z,19.31
2017-06-10T00:12:51.911Z,19.24
2017-06-10T00:13:53.553Z,19.30
2017-06-10T00:14:55.241Z,19.30
2017-06-10T00:15:56.897Z,19.33
2017-06-10T00:16:58.542Z,19.31
2017-06-10T00:18:00.145Z,19.27
2017-06-10T00:19:41.245Z,19.26
2017-06-10T00:21:22.463Z,19.29
2017-06-10T00:22:24.057Z,19.30
2017-06-10T00:23:25.650Z,19.08
2017-06-10T00:24:27.255Z,19.11
2017-06-10T00:25:28.873Z,19.07
2017-06-10T00:26:30.475Z,19.16
2017-06-10T00:27:32.098Z,19.08
2017-06-10T00:28:33.684Z,19.11
2017-06-10T00:29:35.300Z,19.21
2017-06-10T00:30:36.968Z,19.09
2017-06-10T00:31:38.568Z,19.11
2017-06-10T00:32:40.140Z,19.02
2017-06-10T00:33:41.785Z,19.04
2017-06-10T00:34:43.404Z,19.09
2017-06-10T00:35:45.004Z,19.09
2017-06-10T00:36:46.622Z,19.04
2017-06-10T00:37:48.145Z,19.00
2017-06-10T00:38:49.812Z,19.00
2017-06-10T00:39:51.409Z,19.02
2017-06-10T00:40:53.082Z,19.04
2017-06-10T00:41:54.705Z,19.08
2017-06-10T00:42:56.284Z,19.00
2017-06-10T00:43:57.851Z,19.00
2017-06-10T00:44:59.386Z,18.98
2017-06-10T00:46:01.034Z,18.93
2017-06-10T00:47:02.597Z,18.98
2017-06-10T00:48:04.162Z,18.96
2017-06-10T00:49:05.773Z,18.98
2017-06-10T00:50:07.381Z,18.93
2017-06-10T00:51:09.022Z,18.84
2017-06-10T00:52:10.595Z,18.90
2017-06-10T00:53:12.168Z,18.92
2017-06-10T00:54:13.784Z,18.99
2017-06-10T00:55:15.409Z,19.02
2017-06-10T00:56:17.064Z,18.88
2017-06-10T00:57:18.656Z,18.93
2017-06-10T00:58:20.241Z,18.88
2017-06-10T00:59:21.851Z,18.90
2017-06-10T01:00:23.467Z,18.81
2017-06-10T01:02:04.614Z,18.83
2017-06-10T01:03:06.261Z,18.93
2017-06-10T01:04:07.936Z,18.90
2017-06-10T01:05:09.609Z,18.90
2017-06-10T01:06:11.241Z,18.89
2017-06-10T01:07:12.848Z,18.81
2017-06-10T01:08:14.482Z,18.74
2017-06-10T01:09:16.176Z,18.80
2017-06-10T01:10:17.843Z,18.74
2017-06-10T01:11:19.447Z,18.75
2017-06-10T01:12:21.096Z,18.80
2017-06-10T01:13:22.708Z,18.74
2017-06-10T01:14:24.400Z,18.75
2017-06-10T01:15:26.112Z,18.71
2017-06-10T01:16:27.717Z,18.73
2017-06-10T01:17:29.337Z,18.71
2017-06-10T01:18:30.991Z,18.66
2017-06-10T01:19:32.629Z,18.75
2017-06-10T01:20:34.349Z,18.77
2017-06-10T01:21:35.980Z,18.81
2017-06-10T01:22:37.592Z,18.78
2017-06-10T01:23:39.221Z,18.66
2017-06-10T01:24:40.786Z,18.70
2017-06-10T01:25:42.415Z,18.68
2017-06-10T01:26:43.974Z,18.63
2017-06-10T01:27:46.256Z,18.63
2017-06-10T01:28:47.985Z,18.71
2017-06-10T01:29:49.609Z,18.74
2017-06-10T01:30:51.288Z,18.71
2017-06-10T01:31:52.890Z,18.81
2017-06-10T01:32:54.543Z,18.77
2017-06-10T01:34:35.769Z,18.74
2017-06-10T01:35:37.435Z,18.83
2017-06-10T01:36:39.102Z,18.68
2017-06-10T01:37:40.744Z,18.74
2017-06-10T01:38:42.340Z,18.59
2017-06-10T01:39:43.984Z,18.59
2017-06-10T01:40:45.672Z,18.58
2017-06-10T01:41:47.230Z,18.65
2017-06-10T01:42:48.861Z,18.58
2017-06-10T01:43:50.441Z,18.59
2017-06-10T01:44:52.029Z,18.50
2017-06-10T01:45:53.721Z,18.60
2017-06-10T01:46:55.327Z,18.58
2017-06-10T01:47:56.960Z,18.58
2017-06-10T01:48:58.526Z,18.66
2017-06-10T01:50:00.079Z,18.55
2017-06-10T01:51:01.729Z,18.60
2017-06-10T01:52:03.364Z,18.50
2017-06-10T01:53:04.939Z,18.55
2017-06-10T01:54:46.013Z,18.49
2017-06-10T01:55:47.644Z,18.53
2017-06-10T01:56:49.217Z,18.55
2017-06-10T01:57:50.861Z,18.55
2017-06-10T01:58:52.473Z,18.41
2017-06-10T01:59:54.104Z,18.53
2017-06-10T02:00:55.701Z,18.44
2017-06-10T02:01:58.059Z,18.41
2017-06-10T02:02:59.669Z,18.37
2017-06-10T02:04:01.238Z,18.43
2017-06-10T02:05:02.895Z,18.40
2017-06-10T02:06:04.478Z,18.43
2017-06-10T02:07:06.091Z,18.47
2017-06-10T02:08:07.716Z,18.47
2017-06-10T02:09:09.351Z,18.58
2017-06-10T02:10:11.011Z,18.56
2017-06-10T02:11:12.592Z,18.59
2017-06-10T02:12:14.194Z,18.52
2017-06-10T02:13:15.790Z,18.50
2017-06-10T02:14:17.385Z,18.40
2017-06-10T02:15:19.030Z,18.43
2017-06-10T02:16:20.597Z,18.38
2017-06-10T02:17:22.207Z,18.56
2017-06-10T02:18:23.805Z,18.40
2017-06-10T02:19:25.412Z,18.41
2017-06-10T02:20:27.050Z,18.41
2017-06-10T02:21:28.715Z,18.45
2017-06-10T02:22:30.347Z,18.33
2017-06-10T02:23:31.922Z,18.37
2017-06-10T02:24:34.091Z,18.34
2017-06-10T02:25:35.640Z,18.34
2017-06-10T02:26:37.257Z,18.25
2017-06-10T02:27:38.821Z,18.37
2017-06-10T02:28:40.428Z,18.31
2017-06-10T02:29:42.021Z,18.29
2017-06-10T02:30:43.626Z,18.23
2017-06-10T02:31:45.239Z,18.31
2017-06-10T02:32:46.838Z,18.31
2017-06-10T02:33:48.478Z,18.23
2017-06-10T02:34:50.124Z,18.28
2017-06-10T02:35:51.761Z,18.22
2017-06-10T02:36:53.386Z,18.35
2017-06-10T02:37:55.079Z,18.28
2017-06-10T02:38:56.728Z,18.31
2017-06-10T02:39:58.450Z,18.26
2017-06-10T02:41:00.188Z,18.33
2017-06-10T02:42:01.894Z,18.28
2017-06-10T02:43:03.486Z,18.20
2017-06-10T02:44:05.130Z,18.34
2017-06-10T02:45:06.770Z,18.26
2017-06-10T02:46:47.876Z,18.28
2017-06-10T02:48:29.054Z,18.31
2017-06-10T02:49:30.677Z,18.23
2017-06-10T02:50:32.249Z,18.26
2017-06-10T02:51:33.903Z,18.22
2017-06-10T02:52:36.085Z,18.31
2017-06-10T02:53:37.812Z,18.25
2017-06-10T02:54:39.453Z,18.23
2017-06-10T02:55:41.070Z,18.16
2017-06-10T02:56:42.670Z,18.15
2017-06-10T02:57:44.336Z,18.18
2017-06-10T02:58:46.003Z,18.19
2017-06-10T02:59:47.671Z,18.15
2017-06-10T03:00:49.342Z,18.22
2017-06-10T03:01:50.961Z,18.05
2017-06-10T03:02:52.660Z,18.16
2017-06-10T03:03:54.277Z,18.31
2017-06-10T03:04:55.951Z,18.23
2017-06-10T03:05:57.618Z,18.18
2017-06-10T03:06:59.218Z,18.18
2017-06-10T03:08:00.830Z,18.23
2017-06-10T03:09:02.467Z,18.23
2017-06-10T03:10:04.100Z,18.25
2017-06-10T03:11:05.755Z,18.20
2017-06-10T03:12:07.345Z,18.04
2017-06-10T03:13:08.966Z,18.08
2017-06-10T03:14:10.632Z,18.16
2017-06-10T03:15:12.271Z,18.20
2017-06-10T03:16:13.893Z,18.18
2017-06-10T03:17:15.530Z,18.19
2017-06-10T03:18:17.173Z,18.05
2017-06-10T03:19:18.863Z,18.10
2017-06-10T03:20:20.465Z,18.08
2017-06-10T03:21:22.098Z,18.25
2017-06-10T03:22:23.736Z,18.23
2017-06-10T03:23:25.405Z,18.22
2017-06-10T03:24:27.111Z,18.22
2017-06-10T03:25:28.749Z,18.16
2017-06-10T03:26:30.389Z,18.16
2017-06-10T03:27:31.967Z,18.07
2017-06-10T03:28:33.558Z,18.16
2017-06-10T03:29:35.195Z,18.08
2017-06-10T03:30:36.750Z,18.04
2017-06-10T03:31:38.356Z,18.16
2017-06-10T03:32:39.999Z,17.97
2017-06-10T03:33:41.603Z,18.05
2017-06-10T03:34:43.263Z,18.03
2017-06-10T03:35:44.832Z,18.07
2017-06-10T03:36:46.440Z,18.03
2017-06-10T03:37:48.027Z,18.10
2017-06-10T03:39:29.199Z,18.11
2017-06-10T03:40:30.820Z,18.08
2017-06-10T03:41:32.450Z,18.05
2017-06-10T03:42:34.046Z,18.03
2017-06-10T03:43:35.633Z,18.11
2017-06-10T03:44:37.289Z,18.04
2017-06-10T03:45:38.864Z,18.10
2017-06-10T03:46:40.470Z,18.15
2017-06-10T03:47:42.076Z,18.00
2017-06-10T03:48:43.661Z,18.05
2017-06-10T03:49:45.256Z,18.13
2017-06-10T03:50:46.845Z,18.18
2017-06-10T03:51:48.445Z,18.10
2017-06-10T03:52:50.065Z,17.98
2017-06-10T03:53:51.680Z,18.05
2017-06-10T03:54:53.374Z,18.10
2017-06-10T03:55:54.926Z,18.13
2017-06-10T03:56:56.550Z,18.10
2017-06-10T03:57:58.167Z,18.05
2017-06-10T03:58:59.802Z,18.03
2017-06-10T04:00:01.500Z,18.03
2017-06-10T04:01:03.107Z,18.15
2017-06-10T04:02:04.684Z,18.20
2017-06-10T04:03:06.313Z,18.18
2017-06-10T04:04:07.936Z,18.22
2017-06-10T04:05:09.602Z,18.10
2017-06-10T04:06:11.177Z,18.19
2017-06-10T04:07:12.809Z,18.05
2017-06-10T04:08:14.429Z,18.10
2017-06-10T04:09:16.120Z,18.15
2017-06-10T04:10:17.768Z,18.16
2017-06-10T04:11:19.382Z,18.20
2017-06-10T04:12:20.983Z,18.20
2017-06-10T04:13:22.638Z,18.20
2017-06-10T04:14:24.313Z,18.26
2017-06-10T04:15:25.963Z,18.25
2017-06-10T04:16:27.594Z,18.35
2017-06-10T04:17:29.198Z,18.38
2017-06-10T04:18:30.842Z,18.50
2017-06-10T04:19:32.523Z,18.55
2017-06-10T04:20:34.180Z,18.50
2017-06-10T04:21:35.824Z,18.49
2017-06-10T04:22:37.441Z,18.63
2017-06-10T04:23:39.106Z,18.65
2017-06-10T04:24:40.798Z,18.68
2017-06-10T04:25:42.487Z,18.65
2017-06-10T04:26:44.105Z,18.75
2017-06-10T04:27:45.745Z,18.86
2017-06-10T04:28:47.444Z,18.84
2017-06-10T04:29:49.096Z,18.93
2017-06-10T04:30:50.717Z,18.92
2017-06-10T04:32:31.808Z,18.96
2017-06-10T04:33:33.397Z,19.00
2017-06-10T04:34:35.030Z,19.08
2017-06-10T04:35:36.607Z,19.11
2017-06-10T04:36:38.202Z,19.12
2017-06-10T04:37:39.911Z,19.14
2017-06-10T04:38:41.560Z,19.19
2017-06-10T04:39:43.201Z,19.30
2017-06-10T04:40:44.826Z,19.37
2017-06-10T04:41:46.414Z,19.40
2017-06-10T04:42:48.084Z,19.49
2017-06-10T04:43:49.747Z,19.49
2017-06-10T04:44:51.392Z,19.58
2017-06-10T04:45:53.021Z,19.64
2017-06-10T04:46:54.688Z,19.58
2017-06-10T04:47:56.344Z,19.63
2017-06-10T04:48:57.916Z,19.69
2017-06-10T04:49:59.592Z,19.79
2017-06-10T04:51:01.195Z,19.89
2017-06-10T04:52:02.909Z,20.02
2017-06-10T04:53:04.546Z,19.96
2017-06-10T04:54:06.407Z,19.94
2017-06-10T04:55:08.014Z,20.00
2017-06-10T04:56:09.602Z,20.14
2017-06-10T04:57:13.022Z,20.10
2017-06-10T04:58:14.674Z,20.28
2017-06-10T04:59:16.326Z,20.25
2017-06-10T05:00:17.929Z,20.19
2017-06-10T05:01:19.538Z,20.28
2017-06-10T05:02:22.647Z,20.31
2017-06-10T05:03:24.278Z,20.43
2017-06-10T05:04:25.871Z,20.44
2017-06-10T05:05:27.486Z,20.50
2017-06-10T05:06:29.069Z,20.47
2017-06-10T05:07:30.684Z,20.43
2017-06-10T05:08:32.358Z,20.58
2017-06-10T05:09:33.971Z,20.60
2017-06-10T05:11:15.134Z,20.56
2017-06-10T05:12:16.728Z,20.70
2017-06-10T05:13:18.464Z,20.77
2017-06-10T05:14:20.089Z,20.70
2017-06-10T05:15:21.679Z,20.88
2017-06-10T05:16:23.365Z,20.88
2017-06-10T05:17:24.981Z,20.88
2017-06-10T05:18:26.583Z,20.95
2017-06-10T05:19:28.216Z,21.05
2017-06-10T05:20:29.811Z,21.12
2017-06-10T05:21:31.511Z,21.12
2017-06-10T05:22:33.103Z,21.15
2017-06-10T05:24:14.272Z,21.25
2017-06-10T05:25:55.424Z,21.24
2017-06-10T05:26:57.089Z,21.29
2017-06-10T05:27:58.685Z,21.29
2017-06-10T05:29:00.288Z,21.33
2017-06-10T05:30:02.078Z,21.39
2017-06-10T05:31:03.703Z,21.43
2017-06-10T05:32:05.365Z,21.43
2017-06-10T05:33:06.992Z,21.40
2017-06-10T05:34:08.611Z,21.50
2017-06-10T05:35:10.248Z,21.50
2017-06-10T05:36:12.859Z,21.54
2017-06-10T05:37:14.855Z,21.57
2017-06-10T05:38:16.423Z,21.62
2017-06-10T05:39:18.064Z,21.66
2017-06-10T05:40:19.687Z,21.75
2017-06-10T05:41:21.305Z,21.75
2017-06-10T05:42:22.991Z,21.89
2017-06-10T05:43:24.638Z,21.82
2017-06-10T05:44:26.293Z,21.87
2017-06-10T05:45:27.990Z,21.82
2017-06-10T05:46:29.650Z,21.99
2017-06-10T05:47:31.390Z,21.93
2017-06-10T05:48:33.105Z,22.00
2017-06-10T05:49:34.729Z,21.96
2017-06-10T05:50:36.436Z,22.02
2017-06-10T05:51:38.056Z,22.00
2017-06-10T05:52:39.738Z,22.17
2017-06-10T05:53:41.389Z,22.20
2017-06-10T05:54:43.033Z,22.23
2017-06-10T05:55:44.685Z,22.22
2017-06-10T05:56:46.243Z,22.38
2017-06-10T05:57:47.930Z,22.32
2017-06-10T05:58:49.577Z,22.45
2017-06-10T05:59:51.177Z,22.43
2017-06-10T06:00:52.868Z,22.43
2017-06-10T06:01:54.491Z,22.39
2017-06-10T06:02:56.193Z,22.45
2017-06-10T06:03:57.859Z,22.54
2017-06-10T06:04:59.543Z,22.62
2017-06-10T06:06:01.088Z,22.62
2017-06-10T06:07:02.701Z,22.63
2017-06-10T06:08:04.393Z,22.69
2017-06-10T06:09:06.009Z,22.70
2017-06-10T06:10:07.636Z,22.70
2017-06-10T06:11:09.229Z,22.78
2017-06-10T06:12:10.876Z,22.73
2017-06-10T06:13:12.538Z,22.80
2017-06-10T06:14:14.134Z,22.84
2017-06-10T06:15:15.947Z,22.87
2017-06-10T06:16:57.556Z,22.94
2017-06-10T06:17:59.247Z,22.98
2017-06-10T06:19:00.898Z,23.06
2017-06-10T06:20:02.575Z,23.12
2017-06-10T06:21:04.250Z,23.18
2017-06-10T06:22:05.933Z,23.09
2017-06-10T06:23:07.552Z,23.18
2017-06-10T06:24:48.720Z,23.27
2017-06-10T06:26:29.915Z,23.24
2017-06-10T06:27:31.530Z,23.25
2017-06-10T06:28:33.180Z,23.31
2017-06-10T06:29:34.850Z,23.37
2017-06-10T06:30:36.467Z,23.41
2017-06-10T06:31:38.162Z,23.43
2017-06-10T06:32:39.774Z,23.46
2017-06-10T06:33:41.412Z,23.56
2017-06-10T06:34:43.093Z,23.59
2017-06-10T06:35:44.708Z,23.65
2017-06-10T06:36:46.332Z,23.59
2017-06-10T06:37:47.968Z,23.58
2017-06-10T06:38:49.606Z,23.63
2017-06-10T06:39:51.257Z,23.61
2017-06-10T06:40:52.852Z,23.62
2017-06-10T06:41:54.466Z,23.73
2017-06-10T06:42:56.098Z,23.73
2017-06-10T06:43:57.690Z,23.80
2017-06-10T06:44:59.366Z,23.76
2017-06-10T06:46:00.897Z,23.80
2017-06-10T06:47:02.538Z,23.87
2017-06-10T06:48:04.128Z,23.86
2017-06-10T06:49:05.741Z,23.96
2017-06-10T06:50:07.445Z,24.05
2017-06-10T06:51:09.032Z,24.03
2017-06-10T06:52:10.619Z,24.14
2017-06-10T06:53:12.183Z,24.16
2017-06-10T06:54:13.768Z,24.20
2017-06-10T06:55:15.387Z,24.13
2017-06-10T06:56:16.992Z,24.18
2017-06-10T06:57:18.585Z,24.33
2017-06-10T06:58:20.226Z,24.35
2017-06-10T06:59:21.883Z,24.42
2017-06-10T07:00:23.531Z,24.32
2017-06-10T07:01:25.140Z,24.40
2017-06-10T07:02:26.770Z,24.39
2017-06-10T07:03:28.391Z,24.36
2017-06-10T07:04:30.096Z,24.39
2017-06-10T07:05:31.713Z,24.40
2017-06-10T07:06:33.355Z,24.48
2017-06-10T07:07:34.912Z,24.51
2017-06-10T07:08:36.519Z,24.55
2017-06-10T07:10:18.205Z,24.60
2017-06-10T07:11:19.929Z,24.69
2017-06-10T07:12:21.546Z,24.78
2017-06-10T07:13:23.154Z,24.74
2017-06-10T07:14:24.763Z,24.78
2017-06-10T07:15:26.461Z,24.81
2017-06-10T07:16:28.066Z,24.86
2017-06-10T07:17:29.680Z,24.85
2017-06-10T07:18:31.316Z,24.95
2017-06-10T07:19:32.936Z,24.92
2017-06-10T07:20:34.627Z,24.95
2017-06-10T07:21:36.243Z,24.96
2017-06-10T07:22:37.868Z,25.03
2017-06-10T07:23:39.459Z,25.03
2017-06-10T07:24:41.110Z,25.01
2017-06-10T07:25:42.802Z,25.10
2017-06-10T07:26:44.455Z,25.11
2017-06-10T07:27:46.102Z,25.17
2017-06-10T07:28:47.727Z,25.08
2017-06-10T07:29:49.347Z,25.11
2017-06-10T07:30:51.037Z,25.18
2017-06-10T07:31:52.692Z,25.14
2017-06-10T07:32:54.324Z,25.26
2017-06-10T07:33:55.970Z,25.26
2017-06-10T07:34:57.627Z,25.28
2017-06-10T07:35:59.337Z,25.36
2017-06-10T07:37:00.977Z,25.32
2017-06-10T07:38:02.627Z,25.31
2017-06-10T07:39:04.252Z,25.36
2017-06-10T07:40:05.888Z,25.36
2017-06-10T07:41:07.541Z,25.47
2017-06-10T07:42:09.182Z,25.33
2017-06-10T07:43:10.823Z,25.36
2017-06-10T07:44:12.476Z,25.46
2017-06-10T07:45:14.105Z,25.41
2017-06-10T07:46:15.786Z,25.54
2017-06-10T07:47:17.426Z,25.53
2017-06-10T07:48:19.115Z,25.59
2017-06-10T07:49:21.273Z,25.62
2017-06-10T07:50:23.731Z,25.65
2017-06-10T07:51:25.465Z,25.62
2017-06-10T07:52:27.119Z,25.77
2017-06-10T07:53:28.764Z,25.75
2017-06-10T07:54:30.439Z,25.75
2017-06-10T07:55:32.016Z,25.84
2017-06-10T07:56:33.675Z,25.96
2017-06-10T07:57:35.321Z,25.88
2017-06-10T07:58:36.950Z,25.88
2017-06-10T07:59:38.538Z,25.93
2017-06-10T08:01:19.694Z,25.93
2017-06-10T08:03:00.795Z,26.05
2017-06-10T08:04:02.407Z,26.06
2017-06-10T08:05:04.011Z,26.10
2017-06-10T08:06:05.600Z,26.02
2017-06-10T08:07:07.265Z,26.16
2017-06-10T08:08:08.892Z,26.13
2017-06-10T08:09:10.511Z,26.19
2017-06-10T08:10:12.131Z,26.19
2017-06-10T08:11:13.735Z,26.23
2017-06-10T08:12:15.346Z,26.26
2017-06-10T08:13:16.974Z,26.31
2017-06-10T08:14:18.580Z,26.36
2017-06-10T08:15:20.215Z,26.31
2017-06-10T08:16:21.810Z,26.40
2017-06-10T08:17:23.510Z,26.41
2017-06-10T08:18:25.127Z,26.44
2017-06-10T08:19:26.739Z,26.41
2017-06-10T08:20:28.371Z,26.41
2017-06-10T08:21:29.986Z,26.52
2017-06-10T08:22:31.641Z,26.56
2017-06-10T08:23:33.262Z,26.55
2017-06-10T08:24:34.914Z,26.52
2017-06-10T08:25:36.512Z,26.56
2017-06-10T08:26:38.140Z,26.62
2017-06-10T08:27:39.764Z,26.47
2017-06-10T08:28:41.372Z,26.51
2017-06-10T08:29:43.123Z,26.55
2017-06-10T08:30:44.759Z,26.59
2017-06-10T08:31:46.394Z,26.70
2017-06-10T08:32:47.984Z,26.77
2017-06-10T08:33:49.578Z,26.66
2017-06-10T08:34:51.244Z,26.63
2017-06-10T08:35:52.835Z,26.75
2017-06-10T08:36:54.439Z,26.85
2017-06-10T08:37:56.068Z,26.77
2017-06-10T08:38:57.687Z,26.78
2017-06-10T08:39:59.337Z,26.90
2017-06-10T08:41:00.959Z,27.08
2017-06-10T08:42:02.602Z,27.11
2017-06-10T08:43:04.222Z,27.14
2017-06-10T08:44:05.875Z,27.22
2017-06-10T08:45:47.005Z,27.18
2017-06-10T08:47:28.154Z,27.33
2017-06-10T08:48:29.767Z,27.25
2017-06-10T08:49:31.370Z,27.27
2017-06-10T08:50:32.990Z,27.35
2017-06-10T08:51:34.637Z,27.39
2017-06-10T08:52:36.323Z,27.44
2017-06-10T08:53:37.958Z,27.51
2017-06-10T08:55:58.568Z,27.51
2017-06-10T08:57:00.188Z,27.59
2017-06-10T08:58:41.417Z,27.65
2017-06-10T09:01:41.591Z,27.98
2017-06-10T09:02:43.236Z,28.04
2017-06-10T09:05:04.252Z,28.20
2017-06-10T09:07:24.963Z,28.42
2017-06-10T09:08:26.691Z,28.51
2017-06-10T09:10:07.865Z,28.63
2017-06-10T09:11:09.614Z,28.74
2017-06-10T09:12:11.302Z,28.79
2017-06-10T09:13:12.993Z,28.84
2017-06-10T09:14:14.696Z,28.88
2017-06-10T09:15:16.414Z,28.89
2017-06-10T09:16:18.038Z,28.88
2017-06-10T09:17:19.659Z,28.89
2017-06-10T09:18:21.280Z,28.82
2017-06-10T09:19:22.886Z,28.86
2017-06-10T09:20:24.511Z,28.82
2017-06-10T09:21:26.131Z,28.82
2017-06-10T09:22:27.760Z,28.70
2017-06-10T09:23:29.439Z,28.67
2017-06-10T09:24:31.069Z,28.66
2017-06-10T09:25:32.713Z,28.48
2017-06-10T09:26:34.321Z,28.38
2017-06-10T09:27:35.963Z,28.20
2017-06-10T09:28:37.629Z,28.32
2017-06-10T09:29:39.231Z,28.25
2017-06-10T09:30:40.832Z,28.25
2017-06-10T09:31:42.471Z,28.25
2017-06-10T09:32:44.159Z,28.19
2017-06-10T09:33:45.804Z,28.11
2017-06-10T09:34:47.438Z,28.15
2017-06-10T09:35:49.123Z,28.12
2017-06-10T09:36:50.789Z,28.15
2017-06-10T09:37:52.447Z,28.19
2017-06-10T09:38:54.078Z,28.26
2017-06-10T09:39:55.724Z,28.25
2017-06-10T09:40:57.394Z,28.17
2017-06-10T09:41:59.266Z,28.20
2017-06-10T09:43:00.896Z,28.22
2017-06-10T09:44:02.541Z,28.35
2017-06-10T09:45:04.174Z,28.29
2017-06-10T09:46:05.839Z,28.30
2017-06-10T09:47:07.485Z,28.29
2017-06-10T09:48:09.110Z,28.25
2017-06-10T09:49:10.699Z,28.33
2017-06-10T09:50:12.311Z,28.22
2017-06-10T09:51:14.018Z,28.25
2017-06-10T09:52:15.631Z,28.15
2017-06-10T09:53:17.256Z,28.19
2017-06-10T09:54:18.917Z,28.08
2017-06-10T09:55:20.500Z,28.08
2017-06-10T09:56:22.145Z,28.02
2017-06-10T09:57:23.808Z,28.00
2017-06-10T09:58:25.379Z,28.04
2017-06-10T09:59:26.980Z,28.05
2017-06-10T10:00:28.568Z,28.07
2017-06-10T10:01:30.158Z,28.07
2017-06-10T10:02:31.816Z,28.20
2017-06-10T10:03:33.410Z,28.14
2017-06-10T10:04:34.979Z,28.15
2017-06-10T10:05:36.667Z,28.11
2017-06-10T10:06:38.303Z,28.11
2017-06-10T10:07:39.940Z,28.14
2017-06-10T10:08:41.585Z,28.12
2017-06-10T10:09:43.192Z,28.19
2017-06-10T10:10:44.864Z,28.17
2017-06-10T10:11:46.526Z,28.11
2017-06-10T10:12:48.158Z,28.17
2017-06-10T10:13:49.807Z,28.14
2017-06-10T10:14:51.440Z,28.11
2017-06-10T10:15:53.097Z,28.22
2017-06-10T10:16:54.697Z,28.22
2017-06-10T10:17:56.308Z,28.11
2017-06-10T10:18:57.919Z,28.12
2017-06-10T10:19:59.486Z,28.14
2017-06-10T10:21:01.166Z,28.22
2017-06-10T10:22:02.806Z,28.26
2017-06-10T10:23:04.418Z,28.39
2017-06-10T10:24:06.064Z,28.27
2017-06-10T10:25:07.735Z,28.20
2017-06-10T10:26:09.440Z,28.23
2017-06-10T10:27:11.019Z,28.23
2017-06-10T10:28:12.651Z,28.25
2017-06-10T10:29:14.285Z,28.17
2017-06-10T10:30:15.926Z,28.15
2017-06-10T10:31:17.598Z,28.10
2017-06-10T10:32:19.208Z,28.15
2017-06-10T10:33:20.869Z,28.23
2017-06-10T10:34:22.490Z,28.20
2017-06-10T10:35:24.137Z,28.17
2017-06-10T10:36:25.794Z,28.11
2017-06-10T10:37:27.449Z,28.11
2017-06-10T10:39:08.665Z,28.10
2017-06-10T10:40:10.299Z,28.19
2017-06-10T10:41:11.880Z,28.08
2017-06-10T10:42:13.493Z,28.20
2017-06-10T10:43:15.033Z,28.12
2017-06-10T10:44:16.967Z,28.12
2017-06-10T10:45:18.580Z,28.17
2017-06-10T10:46:20.229Z,28.14
2017-06-10T10:47:21.969Z,28.08
2017-06-10T10:48:23.595Z,28.07
2017-06-10T10:49:25.204Z,28.11
2017-06-10T10:50:26.850Z,28.12
2017-06-10T10:51:28.478Z,28.08
2017-06-10T10:52:30.167Z,28.05
2017-06-10T10:53:31.833Z,28.00
2017-06-10T10:54:33.476Z,28.01
2017-06-10T10:55:35.073Z,28.08
2017-06-10T10:56:36.712Z,28.10
2017-06-10T10:57:38.394Z,27.95
2017-06-10T10:58:39.989Z,28.12
2017-06-10T10:59:41.720Z,28.00
2017-06-10T11:00:43.327Z,27.95
2017-06-10T11:01:44.927Z,28.10
2017-06-10T11:02:46.556Z,28.11
2017-06-10T11:03:48.195Z,28.01
2017-06-10T11:04:49.892Z,27.98
2017-06-10T11:05:51.512Z,27.96
2017-06-10T11:06:53.169Z,28.04
2017-06-10T11:07:54.768Z,28.00
2017-06-10T11:08:56.393Z,27.93
2017-06-10T11:09:58.074Z,28.01
2017-06-10T11:10:59.694Z,28.05
2017-06-10T11:12:01.321Z,28.08
2017-06-10T11:13:02.938Z,27.96
2017-06-10T11:14:04.611Z,28.04
2017-06-10T11:15:06.261Z,28.00
2017-06-10T11:16:07.857Z,27.96
2017-06-10T11:17:09.506Z,28.04
2017-06-10T11:18:11.154Z,27.98
2017-06-10T11:19:12.774Z,28.01
2017-06-10T11:20:14.419Z,27.98
2017-06-10T11:21:16.079Z,27.96
2017-06-10T11:22:17.724Z,27.96
2017-06-10T11:23:19.316Z,28.00
2017-06-10T11:24:20.937Z,27.98
2017-06-10T11:25:22.605Z,27.92
2017-06-10T11:26:24.292Z,28.00
2017-06-10T11:27:25.984Z,27.92
2017-06-10T11:28:27.603Z,27.96
2017-06-10T11:29:29.236Z,28.00
2017-06-10T11:30:30.932Z,27.95
2017-06-10T11:32:12.092Z,28.00
2017-06-10T11:33:13.687Z,27.90
2017-06-10T11:34:15.306Z,27.90
2017-06-10T11:35:16.922Z,27.87
2017-06-10T11:36:18.512Z,27.87
2017-06-10T11:37:20.131Z,27.89
2017-06-10T11:38:21.714Z,27.89
2017-06-10T11:39:23.348Z,27.92
2017-06-10T11:40:24.934Z,27.95
2017-06-10T11:41:26.539Z,27.85
2017-06-10T11:42:28.202Z,27.80
2017-06-10T11:43:29.840Z,27.85
2017-06-10T11:44:31.480Z,27.74
2017-06-10T11:45:33.211Z,27.83
2017-06-10T11:46:34.873Z,27.75
2017-06-10T11:47:36.524Z,27.80
2017-06-10T11:48:38.172Z,27.80
2017-06-10T11:49:39.833Z,27.80
2017-06-10T11:50:41.508Z,27.75
2017-06-10T11:51:43.115Z,27.74
2017-06-10T11:52:44.760Z,27.80
2017-06-10T11:53:46.384Z,27.77
2017-06-10T11:54:48.006Z,27.75
2017-06-10T11:55:49.655Z,27.77
2017-06-10T11:56:51.262Z,27.73
2017-06-10T11:57:52.866Z,27.77
2017-06-10T11:58:54.526Z,27.75
2017-06-10T11:59:56.128Z,27.65
2017-06-10T12:00:57.781Z,27.64
2017-06-10T12:01:59.392Z,27.73
2017-06-10T12:03:00.999Z,27.60
2017-06-10T12:04:02.711Z,27.52
2017-06-10T12:05:04.392Z,27.59
2017-06-10T12:06:06.103Z,27.54
2017-06-10T12:07:07.726Z,27.60
2017-06-10T12:08:09.418Z,27.65
2017-06-10T12:09:11.105Z,27.63
2017-06-10T12:10:12.795Z,27.64
2017-06-10T12:11:14.456Z,27.63
2017-06-10T12:12:16.080Z,27.65
2017-06-10T12:13:17.729Z,27.55
2017-06-10T12:14:19.491Z,27.54
2017-06-10T12:15:21.182Z,27.64
2017-06-10T12:16:22.823Z,27.52
2017-06-10T12:17:24.518Z,27.52
2017-06-10T12:18:26.908Z,27.51
2017-06-10T12:19:28.618Z,27.49
2017-06-10T12:20:30.289Z,27.51
2017-06-10T12:21:32.035Z,27.52
2017-06-10T12:22:33.677Z,27.49
2017-06-10T12:24:14.875Z,27.42
2017-06-10T12:26:03.582Z,27.52
2017-06-10T12:27:05.263Z,27.49
2017-06-10T12:28:06.890Z,27.48
2017-06-10T12:29:08.656Z,27.52
2017-06-10T12:30:10.293Z,27.42
2017-06-10T12:31:11.946Z,27.37
2017-06-10T12:32:13.584Z,27.54
2017-06-10T12:33:15.310Z,27.52
2017-06-10T12:34:16.969Z,27.40
2017-06-10T12:35:18.629Z,27.39
2017-06-10T12:36:20.278Z,27.44
2017-06-10T12:37:21.945Z,27.40
2017-06-10T12:38:23.528Z,27.44
2017-06-10T12:39:25.225Z,27.45
2017-06-10T12:40:26.884Z,27.39
2017-06-10T12:41:28.534Z,27.39
2017-06-10T12:42:30.186Z,27.44
2017-06-10T12:43:31.836Z,27.40
2017-06-10T12:44:33.471Z,27.37
2017-06-10T12:45:35.095Z,27.44
2017-06-10T12:46:36.688Z,27.45
2017-06-10T12:47:38.393Z,27.35
2017-06-10T12:48:39.985Z,27.33
2017-06-10T12:49:41.672Z,27.39
2017-06-10T12:50:43.344Z,27.45
2017-06-10T12:51:44.955Z,27.48
2017-06-10T12:52:46.584Z,27.39
2017-06-10T12:53:48.204Z,27.30
2017-06-10T12:54:49.886Z,27.26
2017-06-10T12:55:51.514Z,27.27
2017-06-10T12:56:53.133Z,27.35
2017-06-10T12:57:54.775Z,27.35
2017-06-10T12:58:56.431Z,27.39
2017-06-10T12:59:58.140Z,27.36
2017-06-10T13:00:59.753Z,27.30
2017-06-10T13:02:01.349Z,27.25
2017-06-10T13:03:03.031Z,27.22
2017-06-10T13:04:04.622Z,27.21
2017-06-10T13:05:06.280Z,27.26
2017-06-10T13:06:07.902Z,27.22
2017-06-10T13:07:09.503Z,27.18
2017-06-10T13:08:11.097Z,27.27
2017-06-10T13:09:12.772Z,27.14
2017-06-10T13:10:14.464Z,27.12
2017-06-10T13:11:16.065Z,27.14
2017-06-10T13:12:17.681Z,26.96
2017-06-10T13:13:19.324Z,27.12
2017-06-10T13:14:20.906Z,26.96
2017-06-10T13:16:02.046Z,26.96
2017-06-10T13:17:03.678Z,27.05
2017-06-10T13:18:05.316Z,26.99
2017-06-10T13:19:06.992Z,26.95
2017-06-10T13:20:08.620Z,27.03
2017-06-10T13:21:10.221Z,27.08
2017-06-10T13:22:11.840Z,27.02
2017-06-10T13:23:13.441Z,27.05
2017-06-10T13:24:15.088Z,27.02
2017-06-10T13:25:16.708Z,27.11
2017-06-10T13:26:18.317Z,26.96
2017-06-10T13:27:19.889Z,27.10
2017-06-10T13:28:21.519Z,26.96
2017-06-10T13:29:23.215Z,26.99
2017-06-10T13:30:24.853Z,27.00
2017-06-10T13:31:26.473Z,26.99
2017-06-10T13:32:28.081Z,26.96
2017-06-10T13:33:29.703Z,27.05
2017-06-10T13:34:31.417Z,26.92
2017-06-10T13:35:33.036Z,26.99
2017-06-10T13:36:34.654Z,26.95
2017-06-10T13:37:36.365Z,26.99
2017-06-10T13:38:37.995Z,26.89